Terminal Aerodrome Forecast
Issued by NWS Hastings, NE

Home | Current Version | Previous Version | Text Only | Print | Product List | Glossary On
Versions: 1 2 3 4 5 6 7 8 9 10 11 12 13 14 15 16 17 18 19 20 21 22 23 24 25 26 27 28 29 30 31 32 33 34 35 36 37
000
FTUS43 KGID 231547 AAA
TAFGRI
TAF AMD
KGRI 231547Z 2316/2412 VRB04KT 1/4SM FG VV002
     FM231700 20006KT 2SM BR SCT002 BKN015
     FM231800 20006KT P6SM BKN015
     FM232100 20008KT P6SM SCT015
     FM240600 21010KT 6SM BR SCT005 SCT200=

USA.gov is the U.S. government's official web portal to all federal, state and local government web resources and services.